Time;durP1;ratioP1;P1;durP2;ratioP2;P2;SDS_P1;SDS_P2;PMS_P1;PMS_P2;Temp;Humidity;BMP_temperature;BMP_pressure;BME280_temperature;BME280_humidity;BME280_pressure;Samples;Min_cycle;Max_cycle;Signal;HPM_P1;HPM_P2
2022/08/23 00:01:17;;;;;;;0.20;0.20;;;19.40;99.90;;;;;;6144134;23;20027;-88
2022/08/23 00:03:47;;;;;;;0.30;0.30;;;19.40;99.90;;;;;;6150924;23;20031;-88
2022/08/23 00:06:14;;;;;;;0.20;0.20;;;19.40;99.90;;;;;;6147088;23;20261;-87
2022/08/23 00:08:44;;;;;;;0.20;0.20;;;19.50;99.90;;;;;;6145284;23;20016;-90
2022/08/23 00:11:27;;;;;;;0.20;0.20;;;19.50;99.90;;;;;;6147845;23;20087;-89
2022/08/23 00:13:55;;;;;;;0.20;0.20;;;19.50;99.90;;;;;;6170840;23;20079;-89
2022/08/23 00:16:22;;;;;;;0.22;0.22;;;19.50;99.90;;;;;;6142147;23;20019;-89
2022/08/23 00:18:49;;;;;;;0.30;0.30;;;19.50;99.90;;;;;;6146036;23;20047;-88
2022/08/23 00:21:19;;;;;;;0.20;0.20;;;19.50;99.90;;;;;;6147197;23;20040;-87
2022/08/23 00:23:46;;;;;;;0.10;0.10;;;19.50;99.90;;;;;;6141542;23;20016;-90
2022/08/23 00:26:13;;;;;;;0.22;0.20;;;19.50;99.90;;;;;;6137340;23;20024;-89
2022/08/23 00:28:41;;;;;;;0.20;0.20;;;19.50;99.90;;;;;;6138155;23;20020;-87
2022/08/23 00:31:09;;;;;;;0.10;0.10;;;19.50;99.90;;;;;;6145930;23;20016;-86
2022/08/23 00:33:37;;;;;;;0.20;0.20;;;19.50;99.90;;;;;;6148796;23;20471;-86
2022/08/23 00:36:04;;;;;;;0.20;0.20;;;19.50;99.90;;;;;;6145487;23;20051;-87
2022/08/23 00:38:31;;;;;;;0.20;0.20;;;19.50;99.90;;;;;;6168023;23;20070;-91
2022/08/23 00:41:01;;;;;;;0.22;0.22;;;19.50;99.90;;;;;;6138328;23;20040;-92
2022/08/23 00:49:16;;;;;;;0.28;0.20;;;19.50;99.90;;;;;;6171041;23;20029;-90
2022/08/23 00:51:54;;;;;;;0.20;0.20;;;19.50;99.90;;;;;;6139593;23;20336;-90
2022/08/23 00:54:23;;;;;;;0.20;0.20;;;19.50;99.90;;;;;;6163244;23;20029;-91
2022/08/23 00:56:50;;;;;;;0.20;0.20;;;19.50;99.90;;;;;;6137409;23;20024;-91
2022/08/23 00:59:17;;;;;;;0.20;0.20;;;19.50;99.90;;;;;;6140913;23;20020;-90
2022/08/23 01:01:44;;;;;;;0.20;0.20;;;19.50;99.90;;;;;;6141783;23;20025;-91
2022/08/23 01:04:11;;;;;;;0.20;0.20;;;19.50;99.90;;;;;;6140654;23;20013;-89
2022/08/23 01:06:58;;;;;;;0.30;0.30;;;19.50;99.90;;;;;;6138781;23;20321;-89
2022/08/23 01:09:26;;;;;;;0.28;0.28;;;19.60;99.90;;;;;;6141558;23;20013;-89
2022/08/23 01:12:17;;;;;;;0.20;0.20;;;19.60;99.90;;;;;;6139542;23;20020;-90
2022/08/23 01:15:09;;;;;;;0.20;0.20;;;19.60;99.90;;;;;;6151374;23;20047;-89
2022/08/23 01:17:52;;;;;;;0.10;0.10;;;19.60;99.90;;;;;;6140337;23;20022;-90
2022/08/23 01:20:21;;;;;;;;;;;19.50;99.90;;;;;;6144748;23;20024;-89
2022/08/23 01:23:06;;;;;;;0.35;0.20;;;19.60;99.90;;;;;;6175702;23;19920;-93
2022/08/23 01:25:33;;;;;;;0.30;0.30;;;19.60;99.90;;;;;;6142975;23;20021;-88
2022/08/23 01:28:00;;;;;;;0.40;0.30;;;19.60;99.90;;;;;;6163050;23;20023;-87
2022/08/23 01:33:09;;;;;;;0.40;0.40;;;19.60;99.90;;;;;;6139904;23;20144;-94
2022/08/23 01:35:48;;;;;;;0.30;0.30;;;19.60;99.90;;;;;;6076037;23;20062;-90
2022/08/23 01:38:15;;;;;;;0.30;0.30;;;19.60;99.90;;;;;;6078080;23;20026;-87
2022/08/23 01:40:42;;;;;;;0.25;0.25;;;19.60;99.90;;;;;;6078063;23;20018;-91
2022/08/23 01:43:09;;;;;;;0.30;0.30;;;19.60;99.90;;;;;;6077939;23;20053;-92
2022/08/23 01:45:36;;;;;;;0.30;0.30;;;19.60;99.90;;;;;;6054871;23;20068;-92
2022/08/23 01:48:05;;;;;;;0.20;0.20;;;19.60;99.90;;;;;;6080190;23;20015;-90
2022/08/23 01:50:32;;;;;;;0.30;0.30;;;19.70;99.90;;;;;;6078573;23;20640;-91
2022/08/23 01:53:00;;;;;;;0.20;0.20;;;19.60;99.90;;;;;;6058746;23;20049;-89
2022/08/23 01:55:27;;;;;;;0.38;0.38;;;19.60;99.90;;;;;;6069239;23;20022;-92
2022/08/23 01:57:58;;;;;;;0.25;0.25;;;19.60;99.90;;;;;;6086290;23;20021;-92
2022/08/23 02:00:39;;;;;;;0.30;0.30;;;19.60;99.90;;;;;;6085488;23;20018;-89
2022/08/23 02:03:06;;;;;;;0.30;0.30;;;19.60;99.90;;;;;;6062016;23;20433;-88
2022/08/23 02:09:25;;;;;;;0.20;0.20;;;19.70;99.90;;;;;;6012510;23;20024;-90
2022/08/23 02:12:32;;;;;;;0.30;0.30;;;19.70;99.90;;;;;;6003315;23;20019;-92
2022/08/23 02:16:28;;;;;;;;;;;;;;;;;;;;;
2022/08/23 02:18:58;;;;;;;0.52;0.52;;;19.60;99.90;;;;;;5780501;24;20031;-91
2022/08/23 02:50:12;;;;;;;0.70;0.70;;;19.60;99.90;;;;;;6150959;23;20021;-87
2022/08/23 02:52:39;;;;;;;0.70;0.70;;;19.60;99.90;;;;;;6077741;23;20021;-88
2022/08/23 02:55:06;;;;;;;0.90;0.77;;;19.60;99.90;;;;;;6077850;23;20021;-87
2022/08/23 02:57:33;;;;;;;0.80;0.75;;;19.60;99.90;;;;;;6077736;23;20508;-89
2022/08/23 03:00:01;;;;;;;1.23;1.13;;;19.60;99.90;;;;;;6083637;23;20014;-88
2022/08/23 03:02:28;;;;;;;1.00;0.90;;;19.60;99.90;;;;;;6089371;23;20040;-91
2022/08/23 03:04:56;;;;;;;1.00;0.80;;;19.60;99.90;;;;;;6091169;23;20065;-90
2022/08/23 03:07:22;;;;;;;1.00;0.90;;;19.60;99.90;;;;;;6088467;23;20014;-91
2022/08/23 03:09:49;;;;;;;1.48;0.70;;;19.60;99.90;;;;;;6090508;23;20079;-91
2022/08/23 03:12:16;;;;;;;0.70;0.70;;;19.70;99.90;;;;;;6092790;23;20018;-90
2022/08/23 03:14:44;;;;;;;1.00;0.90;;;19.70;99.90;;;;;;6094385;23;20037;-87
2022/08/23 03:17:12;;;;;;;0.85;0.85;;;19.70;99.90;;;;;;6087964;23;20025;-89
2022/08/23 03:19:40;;;;;;;1.20;1.02;;;19.70;99.90;;;;;;6109263;23;20053;-88
2022/08/23 03:22:07;;;;;;;1.30;1.20;;;19.70;99.90;;;;;;6113856;23;20022;-87
2022/08/23 03:24:35;;;;;;;1.17;0.98;;;19.70;99.90;;;;;;6084369;23;20024;-90
2022/08/23 03:27:02;;;;;;;1.13;1.02;;;19.70;99.90;;;;;;6082884;23;20029;-90
2022/08/23 03:29:30;;;;;;;0.70;0.70;;;19.70;99.90;;;;;;6090203;23;20032;-89
2022/08/23 03:31:58;;;;;;;1.05;0.95;;;19.70;99.90;;;;;;6094274;23;20057;-91
2022/08/23 03:34:25;;;;;;;0.63;0.60;;;19.80;99.90;;;;;;6119121;23;20028;-90
2022/08/23 03:36:52;;;;;;;1.00;0.90;;;19.80;99.90;;;;;;6112638;23;20051;-89
2022/08/23 03:39:19;;;;;;;0.73;0.70;;;19.80;99.90;;;;;;6107227;23;20063;-89
2022/08/23 03:41:46;;;;;;;0.88;0.75;;;19.80;99.90;;;;;;6130411;23;20017;-88
2022/08/23 03:44:13;;;;;;;0.80;0.70;;;19.80;99.90;;;;;;6132048;23;20021;-90
2022/08/23 03:46:40;;;;;;;1.10;0.80;;;19.80;99.90;;;;;;6107085;23;20055;-87
2022/08/23 03:49:07;;;;;;;0.80;0.60;;;19.80;99.90;;;;;;6131569;23;20021;-89
2022/08/23 03:51:34;;;;;;;0.70;0.60;;;19.80;99.90;;;;;;6130524;23;20021;-91
2022/08/23 03:54:01;;;;;;;0.60;0.55;;;19.80;99.90;;;;;;6133016;23;20019;-89
2022/08/23 03:56:31;;;;;;;0.65;0.65;;;19.80;99.90;;;;;;6132265;23;20084;-90
2022/08/23 03:59:00;;;;;;;1.02;0.75;;;19.80;99.90;;;;;;6138324;23;20448;-91
2022/08/23 04:01:26;;;;;;;0.70;0.60;;;19.90;99.90;;;;;;6137410;23;20067;-88
2022/08/23 04:03:58;;;;;;;0.75;0.70;;;19.90;99.90;;;;;;6136628;23;20368;-92
2022/08/23 04:06:31;;;;;;;0.55;0.55;;;19.90;99.90;;;;;;6133342;23;20025;-90
2022/08/23 04:08:58;;;;;;;0.50;0.40;;;19.90;99.90;;;;;;6134314;23;20017;-88
2022/08/23 04:11:26;;;;;;;0.50;0.50;;;19.80;99.90;;;;;;6136308;23;20202;-93
2022/08/23 04:13:53;;;;;;;0.40;0.40;;;19.80;99.90;;;;;;6136959;23;20013;-94
2022/08/23 04:16:25;;;;;;;0.55;0.50;;;19.80;99.90;;;;;;6136787;23;20013;-89
2022/08/23 04:18:52;;;;;;;0.52;0.50;;;19.80;99.90;;;;;;6187290;23;20412;-95
2022/08/23 04:21:21;;;;;;;0.38;0.38;;;19.90;99.90;;;;;;6144183;23;20013;-89
2022/08/23 04:23:51;;;;;;;0.57;0.45;;;19.90;99.90;;;;;;6139317;23;20021;-92
2022/08/23 04:26:19;;;;;;;0.60;0.60;;;19.80;99.90;;;;;;6138428;23;20040;-89
2022/08/23 04:28:46;;;;;;;0.50;0.50;;;19.90;99.90;;;;;;6147035;23;20103;-90
2022/08/23 04:31:14;;;;;;;0.50;0.50;;;19.90;99.90;;;;;;6143433;23;20021;-92
2022/08/23 04:33:41;;;;;;;0.47;0.47;;;19.80;99.90;;;;;;6134366;23;20071;-88
2022/08/23 04:36:08;;;;;;;0.70;0.70;;;19.80;99.90;;;;;;6134100;23;20020;-89
2022/08/23 04:38:35;;;;;;;0.70;0.70;;;19.80;99.90;;;;;;6140727;23;20025;-89
2022/08/23 04:43:47;;;;;;;0.98;0.80;;;19.80;99.90;;;;;;6166871;23;20017;-93
2022/08/23 04:46:15;;;;;;;1.25;0.82;;;19.80;99.90;;;;;;6137824;23;20099;-92
2022/08/23 04:48:43;;;;;;;0.60;0.60;;;19.80;99.90;;;;;;6136537;23;20080;-91
2022/08/23 04:51:10;;;;;;;0.90;0.85;;;19.80;99.90;;;;;;6135750;23;20028;-93
2022/08/23 04:53:38;;;;;;;1.08;0.98;;;19.80;99.90;;;;;;6132393;23;20188;-92
2022/08/23 04:56:09;;;;;;;1.03;0.93;;;19.80;99.90;;;;;;6132850;23;20021;-93
2022/08/23 04:58:37;;;;;;;0.95;0.85;;;19.70;99.90;;;;;;6131935;23;20433;-93
2022/08/23 05:01:06;;;;;;;0.73;0.73;;;19.80;99.90;;;;;;6131328;23;20116;-93
2022/08/23 05:03:34;;;;;;;1.20;0.90;;;19.80;99.90;;;;;;6132063;23;20079;-93
2022/08/23 05:06:02;;;;;;;1.10;0.90;;;19.70;99.90;;;;;;6134339;23;20025;-92
2022/08/23 05:08:32;;;;;;;1.00;0.90;;;19.70;99.90;;;;;;6137161;23;20044;-93
2022/08/23 05:11:03;;;;;;;0.85;0.85;;;19.70;99.90;;;;;;6160510;23;20021;-92
2022/08/23 05:13:32;;;;;;;0.70;0.70;;;19.70;99.90;;;;;;6137541;23;20023;-93
2022/08/23 05:16:00;;;;;;;1.40;1.20;;;19.70;99.90;;;;;;6136740;23;20013;-92
2022/08/23 05:18:28;;;;;;;1.58;1.35;;;19.70;99.90;;;;;;6137973;23;20021;-92
2022/08/23 05:20:55;;;;;;;1.38;1.10;;;19.70;99.90;;;;;;6135940;23;20091;-93
2022/08/23 05:23:22;;;;;;;1.42;1.15;;;19.60;99.90;;;;;;6135845;23;20076;-93
2022/08/23 05:26:00;;;;;;;0.60;0.60;;;19.60;99.90;;;;;;6138772;23;20027;-93
2022/08/23 05:28:30;;;;;;;0.85;0.82;;;19.70;99.90;;;;;;6138084;23;20021;-93
2022/08/23 05:31:02;;;;;;;0.65;0.65;;;19.70;99.90;;;;;;6158711;23;20017;-92
2022/08/23 05:33:30;;;;;;;0.90;0.88;;;19.70;99.90;;;;;;6137275;23;20018;-92
2022/08/23 05:35:57;;;;;;;1.17;0.80;;;19.70;99.90;;;;;;6135318;23;20025;-92
2022/08/23 05:38:24;;;;;;;1.10;0.70;;;19.70;99.90;;;;;;6141275;23;20021;-93
2022/08/23 05:40:52;;;;;;;0.80;0.80;;;19.70;99.90;;;;;;6142257;23;20039;-92
2022/08/23 05:43:21;;;;;;;0.77;0.73;;;19.70;99.90;;;;;;6142851;23;20017;-92
2022/08/23 05:46:01;;;;;;;0.50;0.50;;;19.70;99.90;;;;;;6140546;23;20067;-89
2022/08/23 05:48:30;;;;;;;0.60;0.60;;;19.80;99.90;;;;;;6144170;23;20028;-92
2022/08/23 05:51:16;;;;;;;0.50;0.50;;;19.80;99.90;;;;;;6145464;23;20099;-91
2022/08/23 05:53:44;;;;;;;0.65;0.65;;;19.90;99.90;;;;;;6143689;23;20052;-93
2022/08/23 05:56:14;;;;;;;0.88;0.88;;;19.90;99.90;;;;;;6143050;23;20021;-90
2022/08/23 05:58:42;;;;;;;0.85;0.73;;;19.90;99.90;;;;;;6168372;23;20024;-90
2022/08/23 06:01:10;;;;;;;0.55;0.55;;;19.90;99.90;;;;;;6144584;23;20021;-90
2022/08/23 06:03:37;;;;;;;0.65;0.65;;;19.90;99.90;;;;;;6144941;23;20037;-92
2022/08/23 06:06:05;;;;;;;0.65;0.50;;;19.90;99.90;;;;;;6138822;23;20031;-91
2022/08/23 06:08:34;;;;;;;1.05;0.70;;;20.00;99.90;;;;;;6138353;23;20017;-93
2022/08/23 06:11:05;;;;;;;0.70;0.70;;;20.00;99.90;;;;;;6137955;23;20017;-91
2022/08/23 06:13:32;;;;;;;0.70;0.70;;;20.00;99.90;;;;;;6159101;23;20021;-92
2022/08/23 06:15:59;;;;;;;0.68;0.63;;;20.00;99.90;;;;;;6134454;23;20025;-94
2022/08/23 06:18:40;;;;;;;0.85;0.85;;;20.00;99.90;;;;;;6141117;23;20021;-93
2022/08/23 06:21:08;;;;;;;0.70;0.70;;;20.10;99.90;;;;;;6136264;23;20048;-93
2022/08/23 06:23:37;;;;;;;0.82;0.82;;;20.10;99.90;;;;;;6135374;23;20019;-94
2022/08/23 06:26:16;;;;;;;0.85;0.80;;;20.20;99.90;;;;;;6135631;23;20013;-93
2022/08/23 06:28:47;;;;;;;1.15;0.90;;;20.20;99.90;;;;;;6132185;23;20349;-94
2022/08/23 06:31:44;;;;;;;1.02;0.88;;;20.20;99.90;;;;;;6134809;23;20043;-93
2022/08/23 06:34:08;;;;;;;1.10;1.00;;;20.20;99.90;;;;;;6160826;23;20052;-92
2022/08/23 06:36:36;;;;;;;1.20;1.10;;;20.20;99.90;;;;;;6131568;23;20039;-93
2022/08/23 06:39:07;;;;;;;1.30;1.15;;;20.20;99.90;;;;;;6131209;23;20075;-91
2022/08/23 06:41:34;;;;;;;1.25;1.15;;;20.20;99.90;;;;;;6132078;23;20017;-92
2022/08/23 06:44:02;;;;;;;0.90;0.85;;;20.20;99.90;;;;;;6130946;23;20458;-90
2022/08/23 06:46:30;;;;;;;1.65;1.30;;;20.20;99.90;;;;;;6132554;23;20399;-91
2022/08/23 06:48:58;;;;;;;1.30;1.20;;;20.20;99.90;;;;;;6136204;23;20017;-91
2022/08/23 06:51:28;;;;;;;1.52;1.33;;;20.20;99.90;;;;;;6135065;23;20075;-91
2022/08/23 06:53:57;;;;;;;1.60;1.50;;;20.20;99.90;;;;;;6159247;23;20031;-90
2022/08/23 06:56:29;;;;;;;1.65;1.55;;;20.20;99.90;;;;;;6136452;23;20083;-90
2022/08/23 06:58:59;;;;;;;1.70;1.40;;;20.30;99.90;;;;;;6133088;23;20479;-90
2022/08/23 07:01:48;;;;;;;2.28;2.08;;;20.40;99.90;;;;;;6134211;23;20025;-91
2022/08/23 07:04:20;;;;;;;1.60;1.50;;;20.50;99.90;;;;;;6156091;23;20440;-91
2022/08/23 07:06:47;;;;;;;2.85;2.58;;;20.60;99.90;;;;;;6131925;23;20025;-90
2022/08/23 07:09:14;;;;;;;2.95;2.65;;;20.70;99.90;;;;;;6132622;23;20024;-93
2022/08/23 07:11:41;;;;;;;2.97;2.67;;;20.80;99.90;;;;;;6132237;23;20021;-91
2022/08/23 07:14:12;;;;;;;3.10;2.65;;;20.80;99.90;;;;;;6133683;23;20017;-92
2022/08/23 07:16:51;;;;;;;3.10;2.80;;;20.90;99.90;;;;;;6131229;23;20024;-92
2022/08/23 07:19:20;;;;;;;2.95;2.67;;;21.00;99.90;;;;;;6131179;23;20016;-92
2022/08/23 07:21:55;;;;;;;3.28;2.95;;;20.90;99.90;;;;;;6135110;23;20072;-91
2022/08/23 07:24:22;;;;;;;2.30;2.10;;;21.00;99.90;;;;;;6131839;23;20013;-92
2022/08/23 07:26:50;;;;;;;2.83;2.60;;;20.90;99.90;;;;;;6131011;23;20028;-91
2022/08/23 07:29:18;;;;;;;2.63;2.42;;;20.90;99.90;;;;;;6131658;23;20443;-92
2022/08/23 07:31:49;;;;;;;2.40;1.98;;;20.80;99.90;;;;;;6131144;23;20021;-91
2022/08/23 07:34:16;;;;;;;2.17;1.98;;;20.70;99.90;;;;;;6132628;23;20079;-92
2022/08/23 07:36:46;;;;;;;2.72;2.40;;;20.70;99.90;;;;;;6131237;23;20113;-92
2022/08/23 07:39:13;;;;;;;2.28;2.08;;;20.70;99.90;;;;;;6131326;23;20040;-92
2022/08/23 07:41:41;;;;;;;1.90;1.80;;;20.70;99.90;;;;;;6130983;23;20275;-91
2022/08/23 07:44:09;;;;;;;2.78;1.75;;;20.80;99.90;;;;;;6130508;23;20017;-92
2022/08/23 07:46:37;;;;;;;2.35;2.03;;;20.80;99.90;;;;;;6130907;23;20318;-92
2022/08/23 07:49:04;;;;;;;2.83;2.33;;;20.90;99.90;;;;;;6131967;23;20084;-92
2022/08/23 07:51:32;;;;;;;1.90;1.70;;;21.00;99.90;;;;;;6128916;23;20200;-92
2022/08/23 07:54:04;;;;;;;1.90;1.60;;;21.20;99.90;;;;;;6128632;23;20021;-92
2022/08/23 07:56:31;;;;;;;1.90;1.70;;;21.40;99.90;;;;;;6129803;23;20021;-93
2022/08/23 07:59:00;;;;;;;1.45;1.35;;;21.60;99.90;;;;;;6130335;23;20035;-92
2022/08/23 08:01:27;;;;;;;2.05;1.70;;;21.70;99.90;;;;;;6130008;23;20025;-91
2022/08/23 08:03:56;;;;;;;1.83;1.48;;;21.80;99.90;;;;;;6132389;23;20013;-92
2022/08/23 08:06:46;;;;;;;1.40;1.25;;;21.80;99.90;;;;;;6128799;23;20031;-92
2022/08/23 08:09:30;;;;;;;1.15;1.05;;;21.90;99.90;;;;;;6165919;23;20086;-92
2022/08/23 08:11:58;;;;;;;1.30;1.17;;;22.10;99.90;;;;;;6131067;23;20049;-92
2022/08/23 08:14:26;;;;;;;1.42;1.13;;;22.10;99.90;;;;;;6130178;23;20028;-92
2022/08/23 08:16:57;;;;;;;1.60;1.50;;;22.10;99.90;;;;;;6128173;23;20025;-92
2022/08/23 08:19:24;;;;;;;1.35;1.15;;;22.00;99.90;;;;;;6129227;23;20068;-93
2022/08/23 08:21:52;;;;;;;1.52;1.23;;;22.10;99.90;;;;;;6128148;23;20025;-92
2022/08/23 08:24:19;;;;;;;1.17;1.00;;;22.10;99.90;;;;;;6128812;23;20021;-91
2022/08/23 08:26:46;;;;;;;1.23;0.90;;;22.30;99.90;;;;;;6129167;23;20475;-92
2022/08/23 08:29:13;;;;;;;0.93;0.70;;;22.30;99.90;;;;;;6127217;23;20472;-93
2022/08/23 08:31:41;;;;;;;1.15;0.98;;;22.30;99.90;;;;;;6127398;23;20055;-92
2022/08/23 08:34:10;;;;;;;0.80;0.80;;;22.30;99.90;;;;;;6127326;23;20083;-92
2022/08/23 08:36:43;;;;;;;1.25;1.02;;;22.50;99.90;;;;;;6128043;23;20036;-92
2022/08/23 08:39:16;;;;;;;1.27;1.17;;;22.50;99.90;;;;;;6128727;23;20033;-92
2022/08/23 08:41:49;;;;;;;1.73;1.15;;;22.50;99.90;;;;;;6130611;23;20025;-93
2022/08/23 08:44:42;;;;;;;1.10;1.00;;;22.60;99.90;;;;;;6179219;23;20024;-93
2022/08/23 08:47:13;;;;;;;1.00;0.90;;;22.70;99.90;;;;;;6155335;23;20021;-92
2022/08/23 08:49:50;;;;;;;1.10;1.00;;;22.70;99.90;;;;;;6130456;23;20025;-94
2022/08/23 08:52:23;;;;;;;1.02;0.80;;;22.70;99.90;;;;;;6131547;23;20037;-92
2022/08/23 08:55:11;;;;;;;1.17;0.95;;;22.80;99.90;;;;;;6132775;23;20025;-92
2022/08/23 08:57:43;;;;;;;0.80;0.80;;;22.90;99.90;;;;;;6135097;23;20021;-93
2022/08/23 09:00:17;;;;;;;1.00;0.90;;;23.10;99.90;;;;;;6132685;23;20028;-92
2022/08/23 09:02:44;;;;;;;0.88;0.80;;;23.10;99.90;;;;;;6132392;23;20478;-92
2022/08/23 09:05:25;;;;;;;0.95;0.77;;;23.10;99.90;;;;;;6132777;23;20013;-92
2022/08/23 09:08:11;;;;;;;0.88;0.77;;;23.10;99.90;;;;;;6135934;23;20045;-92
2022/08/23 09:11:02;;;;;;;1.10;0.98;;;23.10;99.90;;;;;;6182256;23;20017;-92
2022/08/23 09:13:55;;;;;;;1.10;0.80;;;23.10;99.90;;;;;;6157444;23;20032;-92
2022/08/23 09:16:31;;;;;;;;;;;23.10;99.90;;;;;;6159353;23;20017;-93
2022/08/23 09:19:02;;;;;;;0.90;0.90;;;23.10;99.90;;;;;;6157738;23;19927;-93
2022/08/23 09:21:40;;;;;;;1.83;1.10;;;23.20;99.90;;;;;;6133746;23;20020;-92
2022/08/23 09:24:07;;;;;;;0.80;0.80;;;23.30;99.90;;;;;;6133265;23;20056;-92
2022/08/23 09:26:35;;;;;;;1.48;0.90;;;23.50;99.90;;;;;;6133338;23;20040;-92
2022/08/23 09:29:22;;;;;;;0.80;0.80;;;23.60;99.90;;;;;;6130897;23;20017;-93
2022/08/23 09:31:57;;;;;;;1.08;0.98;;;23.70;99.90;;;;;;6159075;23;20021;-93
2022/08/23 09:34:36;;;;;;;1.40;1.20;;;23.90;99.90;;;;;;6131611;23;20013;-92
2022/08/23 09:37:12;;;;;;;1.10;0.90;;;24.10;99.90;;;;;;6178996;23;20032;-93
2022/08/23 09:39:45;;;;;;;1.30;1.20;;;24.20;99.90;;;;;;6180818;23;20073;-93
2022/08/23 09:42:31;;;;;;;;;;;24.20;99.90;;;;;;6133884;23;20045;-93
2022/08/23 09:44:59;;;;;;;1.00;0.80;;;24.30;99.90;;;;;;6158329;23;19923;-92
2022/08/23 09:47:39;;;;;;;1.23;0.70;;;24.50;99.90;;;;;;6157269;23;20029;-92
2022/08/23 09:50:29;;;;;;;1.20;0.55;;;24.60;99.90;;;;;;6135345;23;20467;-92
2022/08/23 09:53:02;;;;;;;0.75;0.68;;;24.60;99.90;;;;;;6133360;23;20211;-92
2022/08/23 09:55:34;;;;;;;0.40;0.40;;;24.80;99.90;;;;;;6133016;23;20017;-94
2022/08/23 09:58:04;;;;;;;0.47;0.45;;;24.80;99.90;;;;;;6133840;23;20017;-93
2022/08/23 10:00:33;;;;;;;0.90;0.60;;;24.80;99.90;;;;;;6132996;23;20088;-93
2022/08/23 10:03:21;;;;;;;0.52;0.52;;;24.90;99.90;;;;;;6133885;23;20076;-92
2022/08/23 10:05:50;;;;;;;0.68;0.60;;;25.10;99.90;;;;;;6132759;23;20029;-93
2022/08/23 10:08:27;;;;;;;0.60;0.60;;;25.20;99.90;;;;;;6132241;23;20035;-93
2022/08/23 10:11:01;;;;;;;0.60;0.60;;;25.30;99.90;;;;;;6133533;23;20023;-93
2022/08/23 10:13:32;;;;;;;0.80;0.60;;;25.30;99.90;;;;;;6132888;23;20025;-93
2022/08/23 10:16:39;;;;;;;0.60;0.60;;;25.20;99.90;;;;;;6132843;23;20020;-92
2022/08/23 10:19:14;;;;;;;1.00;0.77;;;25.10;99.90;;;;;;6160625;23;20023;-93
2022/08/23 10:22:04;;;;;;;0.70;0.52;;;25.20;99.90;;;;;;6157542;23;20091;-94
2022/08/23 10:25:03;;;;;;;1.10;0.80;;;25.20;99.90;;;;;;6166782;23;20009;-91
2022/08/23 10:31:10;;;;;;;0.50;0.50;;;25.40;99.90;;;;;;6186013;23;20487;-91
2022/08/23 10:33:56;;;;;;;0.40;0.40;;;25.40;99.90;;;;;;6156818;23;20417;-93
2022/08/23 10:36:33;;;;;;;0.63;0.50;;;25.40;99.90;;;;;;6182703;23;20053;-94
2022/08/23 10:39:03;;;;;;;0.30;0.30;;;25.30;99.90;;;;;;6135199;23;20025;-92
2022/08/23 10:42:26;;;;;;;0.40;0.30;;;25.30;99.90;;;;;;6135517;23;20020;-94
2022/08/23 10:45:28;;;;;;;1.00;0.73;;;25.30;99.90;;;;;;6156744;23;20021;-93
2022/08/23 10:48:07;;;;;;;0.57;0.43;;;25.10;99.90;;;;;;6182286;23;20029;-92
2022/08/23 10:50:45;;;;;;;0.55;0.52;;;25.00;99.90;;;;;;6186262;23;20021;-92
2022/08/23 10:53:31;;;;;;;0.40;0.40;;;25.10;99.90;;;;;;6140449;23;20020;-92
2022/08/23 10:56:01;;;;;;;0.38;0.38;;;25.10;99.90;;;;;;6139932;23;20021;-93
2022/08/23 10:58:47;;;;;;;0.57;0.57;;;25.50;99.90;;;;;;6138513;23;20016;-92
2022/08/23 11:01:18;;;;;;;;;;;25.80;99.90;;;;;;6138674;23;20090;-93
2022/08/23 11:04:04;;;;;;;0.38;0.38;;;26.00;99.90;;;;;;6182456;23;19963;-92
2022/08/23 11:06:34;;;;;;;0.35;0.35;;;26.10;99.90;;;;;;6136944;23;20025;-92
2022/08/23 11:09:05;;;;;;;0.20;0.20;;;26.20;99.90;;;;;;6183735;23;20031;-91
2022/08/23 11:11:46;;;;;;;0.20;0.20;;;26.20;99.90;;;;;;6156447;23;20452;-92
2022/08/23 11:14:35;;;;;;;0.33;0.33;;;26.10;99.90;;;;;;6156417;23;20099;-93
2022/08/23 11:17:24;;;;;;;0.50;0.32;;;26.20;99.90;;;;;;6153046;23;20021;-93
2022/08/23 11:19:56;;;;;;;0.40;0.40;;;26.30;99.90;;;;;;6130746;23;20025;-92
2022/08/23 11:22:24;;;;;;;0.40;0.40;;;26.40;99.90;;;;;;6129909;23;20020;-93
2022/08/23 11:25:15;;;;;;;0.40;0.40;;;26.60;99.90;;;;;;6153856;23;20028;-94
2022/08/23 11:27:42;;;;;;;0.73;0.45;;;26.80;99.90;;;;;;6137530;23;20017;-94
2022/08/23 11:30:31;;;;;;;0.50;0.47;;;26.80;99.90;;;;;;6130207;23;20021;-94
2022/08/23 11:33:25;;;;;;;0.40;0.40;;;27.00;99.90;;;;;;6179574;23;20013;-92
2022/08/23 11:36:04;;;;;;;0.75;0.50;;;27.20;99.90;;;;;;6132958;23;20028;-93
2022/08/23 11:38:46;;;;;;;0.50;0.50;;;27.20;99.90;;;;;;6183043;23;20100;-92
2022/08/23 11:41:54;;;;;;;0.40;0.40;;;27.00;99.90;;;;;;6181346;23;20079;-92
2022/08/23 11:44:36;;;;;;;0.90;0.40;;;27.10;99.90;;;;;;6168698;23;20021;-92
2022/08/23 11:47:07;;;;;;;;;;;27.30;99.90;;;;;;6132862;23;20516;-93
2022/08/23 11:49:40;;;;;;;0.55;0.55;;;27.50;99.90;;;;;;6156204;23;19928;-92
2022/08/23 11:52:25;;;;;;;0.35;0.35;;;27.70;99.90;;;;;;6132034;23;20017;-93
2022/08/23 11:55:03;;;;;;;0.50;0.50;;;28.20;99.90;;;;;;6155772;23;20083;-92
2022/08/23 11:58:08;;;;;;;0.43;0.40;;;28.10;99.90;;;;;;6131182;23;20040;-92
2022/08/23 12:00:50;;;;;;;0.30;0.30;;;28.10;99.90;;;;;;6154717;23;20028;-92
2022/08/23 12:03:34;;;;;;;0.40;0.40;;;28.20;99.90;;;;;;6155310;23;20534;-93
2022/08/23 12:06:34;;;;;;;0.98;0.40;;;28.10;99.90;;;;;;6109686;23;20397;-92
2022/08/23 12:09:19;;;;;;;0.50;0.40;;;27.70;99.90;;;;;;6108039;23;20020;-92
2022/08/23 12:11:56;;;;;;;0.45;0.30;;;27.20;99.90;;;;;;6133131;23;20039;-93
2022/08/23 12:14:40;;;;;;;0.30;0.30;;;27.20;99.90;;;;;;6156805;23;20096;-93
2022/08/23 12:17:11;;;;;;;0.30;0.30;;;27.00;99.90;;;;;;6134476;23;20100;-92
2022/08/23 12:19:47;;;;;;;0.20;0.20;;;26.90;99.90;;;;;;6157028;23;20104;-93
2022/08/23 12:22:21;;;;;;;0.30;0.30;;;26.70;99.90;;;;;;6108730;23;20020;-92
2022/08/23 12:24:52;;;;;;;0.25;0.25;;;26.70;99.90;;;;;;6109788;23;20495;-93
2022/08/23 12:27:25;;;;;;;0.43;0.40;;;26.80;99.90;;;;;;6131883;23;20017;-92
2022/08/23 12:30:26;;;;;;;0.40;0.40;;;26.90;99.90;;;;;;6156624;23;20206;-92
2022/08/23 12:32:57;;;;;;;0.40;0.40;;;26.90;99.90;;;;;;6121870;23;20017;-93
2022/08/23 12:35:43;;;;;;;0.45;0.43;;;27.30;99.90;;;;;;6131808;23;20024;-92
2022/08/23 12:38:15;;;;;;;0.40;0.40;;;27.50;99.90;;;;;;6132817;23;20017;-92
2022/08/23 12:40:49;;;;;;;0.40;0.40;;;27.50;99.90;;;;;;6157733;23;20040;-92
2022/08/23 12:43:22;;;;;;;0.38;0.30;;;27.70;99.90;;;;;;6112582;23;20013;-92
2022/08/23 12:45:52;;;;;;;0.10;0.10;;;27.90;99.90;;;;;;6113437;23;20442;-91
2022/08/23 12:48:25;;;;;;;0.22;0.20;;;27.80;99.90;;;;;;6123566;23;20067;-92
2022/08/23 12:51:01;;;;;;;0.65;0.40;;;27.90;99.90;;;;;;6130446;23;20024;-92
2022/08/23 12:53:35;;;;;;;0.40;0.30;;;27.80;99.90;;;;;;6135759;23;20024;-92
2022/08/23 12:56:21;;;;;;;0.30;0.30;;;27.60;99.90;;;;;;6137400;23;20021;-91
2022/08/23 12:59:03;;;;;;;0.70;0.38;;;27.60;99.90;;;;;;6159017;23;20479;-91
2022/08/23 13:01:37;;;;;;;0.60;0.30;;;27.70;99.90;;;;;;6134286;23;20044;-92
2022/08/23 13:04:19;;;;;;;0.30;0.30;;;27.60;99.90;;;;;;6133301;23;20095;-92
2022/08/23 13:06:50;;;;;;;0.40;0.40;;;27.80;99.90;;;;;;6134636;23;20024;-92
2022/08/23 13:09:23;;;;;;;0.33;0.33;;;28.00;99.90;;;;;;6134074;23;20028;-92
2022/08/23 13:11:51;;;;;;;0.50;0.50;;;28.40;99.90;;;;;;6134127;23;20032;-93
2022/08/23 13:14:22;;;;;;;0.43;0.43;;;29.30;99.90;;;;;;6134902;23;20095;-92
2022/08/23 13:16:50;;;;;;;0.20;0.20;;;30.20;99.90;;;;;;6158934;23;20021;-93
2022/08/23 13:19:25;;;;;;;0.50;0.30;;;30.80;99.90;;;;;;6133096;23;20021;-92
2022/08/23 13:22:28;;;;;;;0.20;0.20;;;30.70;99.70;;;;;;6134576;23;20337;-92
2022/08/23 13:25:05;;;;;;;0.17;0.17;;;30.30;99.60;;;;;;6073365;23;20029;-92
2022/08/23 13:27:54;;;;;;;0.10;0.10;;;29.70;99.90;;;;;;6162975;23;20068;-93
2022/08/23 13:30:28;;;;;;;0.10;0.10;;;29.20;99.90;;;;;;6132817;23;20032;-92
2022/08/23 13:33:07;;;;;;;0.45;0.28;;;28.80;99.90;;;;;;6132649;23;20036;-92
2022/08/23 13:35:38;;;;;;;0.20;0.20;;;28.50;99.90;;;;;;6182322;23;20372;-92
2022/08/23 13:38:14;;;;;;;0.10;0.10;;;28.20;99.90;;;;;;6156555;23;20087;-93
2022/08/23 13:40:56;;;;;;;0.20;0.20;;;28.00;99.90;;;;;;6181935;23;20072;-92
2022/08/23 13:43:30;;;;;;;0.30;0.30;;;28.00;99.90;;;;;;6181330;23;20353;-93
2022/08/23 13:46:10;;;;;;;0.38;0.20;;;28.00;99.90;;;;;;6132475;23;20025;-92
2022/08/23 13:48:39;;;;;;;0.45;0.20;;;28.10;99.90;;;;;;6134702;23;20028;-92
2022/08/23 13:51:26;;;;;;;0.10;0.10;;;28.60;99.90;;;;;;6132135;23;20135;-92
2022/08/23 13:53:54;;;;;;;0.15;0.15;;;28.50;99.90;;;;;;6156270;23;20021;-93
2022/08/23 13:56:21;;;;;;;0.10;0.10;;;28.30;99.90;;;;;;6132409;23;20087;-92
2022/08/23 13:58:59;;;;;;;0.20;0.20;;;28.10;99.90;;;;;;6132569;23;20044;-92
2022/08/23 14:01:26;;;;;;;0.15;0.15;;;27.90;99.90;;;;;;6133490;23;20013;-92
2022/08/23 14:03:53;;;;;;;0.20;0.20;;;27.70;99.90;;;;;;6133408;23;20048;-92
2022/08/23 14:06:22;;;;;;;0.95;0.30;;;27.30;99.90;;;;;;6132731;23;20044;-92
2022/08/23 14:08:49;;;;;;;0.13;0.13;;;27.10;99.90;;;;;;6132604;23;20456;-91
2022/08/23 14:11:16;;;;;;;0.10;0.10;;;27.00;99.90;;;;;;6132488;23;20448;-92